Time;durP1;ratioP1;P1;durP2;ratioP2;P2;SDS_P1;SDS_P2;PMS_P1;PMS_P2;Temp;Humidity;BMP_temperature;BMP_pressure;BME280_temperature;BME280_humidity;BME280_pressure;Samples;Min_cycle;Max_cycle;Signal;HPM_P1;HPM_P2
2020/12/21 00:01:52;;;;;;;6.57;2.40;;;22.20;93.10;;;;;;5070831;28;20380;-85
2020/12/21 00:04:20;;;;;;;6.95;2.13;;;22.20;93.50;;;;;;5063895;28;20740;-83
2020/12/21 00:06:57;;;;;;;5.63;2.20;;;22.20;93.30;;;;;;5047216;28;20432;-84
2020/12/21 00:09:26;;;;;;;9.70;2.63;;;22.10;93.40;;;;;;5048532;28;20379;-86
2020/12/21 00:11:53;;;;;;;7.78;2.83;;;22.00;93.80;;;;;;5050910;28;20429;-85
2020/12/21 00:14:20;;;;;;;5.82;2.50;;;22.00;94.10;;;;;;5051392;28;20404;-86
2020/12/21 00:16:53;;;;;;;7.15;2.40;;;22.00;94.30;;;;;;5051270;28;20411;-86
2020/12/21 00:19:21;;;;;;;6.63;2.03;;;22.10;93.80;;;;;;5051037;28;20458;-87
2020/12/21 00:21:53;;;;;;;6.88;1.73;;;22.20;93.40;;;;;;5051765;28;20418;-87
2020/12/21 00:24:21;;;;;;;10.93;2.72;;;22.20;92.50;;;;;;5051109;28;20409;-86
2020/12/21 00:26:51;;;;;;;6.15;2.53;;;22.10;92.50;;;;;;5051994;28;20418;-85
2020/12/21 00:29:19;;;;;;;7.32;1.88;;;22.10;93.10;;;;;;5070491;28;20394;-86
2020/12/21 00:31:48;;;;;;;6.82;1.73;;;22.20;92.90;;;;;;5055348;28;20418;-86
2020/12/21 00:34:16;;;;;;;8.88;2.80;;;22.20;92.70;;;;;;5049172;28;20384;-86
2020/12/21 00:36:47;;;;;;;9.75;2.20;;;22.20;92.50;;;;;;5050561;28;20375;-85
2020/12/21 00:39:15;;;;;;;7.70;1.92;;;22.20;92.50;;;;;;5050882;28;20388;-85
2020/12/21 00:41:44;;;;;;;5.65;1.70;;;22.20;92.80;;;;;;5050556;28;20482;-85
2020/12/21 00:44:12;;;;;;;5.85;1.63;;;22.30;92.60;;;;;;5050623;28;20398;-87
2020/12/21 00:46:39;;;;;;;8.95;1.88;;;22.40;92.70;;;;;;5050265;28;20399;-87
2020/12/21 00:49:07;;;;;;;7.82;1.70;;;22.50;92.30;;;;;;5050778;28;20434;-87
2020/12/21 00:51:35;;;;;;;7.30;1.38;;;22.50;92.40;;;;;;5050431;28;20384;-86
2020/12/21 00:54:03;;;;;;;7.07;1.65;;;22.50;92.20;;;;;;5050661;28;20471;-85
2020/12/21 00:56:30;;;;;;;6.68;1.75;;;22.40;92.50;;;;;;5050474;28;20414;-86
2020/12/21 00:58:58;;;;;;;5.00;1.42;;;22.20;92.80;;;;;;5050263;28;20774;-86
2020/12/21 01:01:28;;;;;;;6.63;1.60;;;22.20;92.80;;;;;;5046702;28;21208;-87
2020/12/21 01:04:00;;;;;;;7.03;1.75;;;22.30;92.90;;;;;;5048495;28;20386;-87
2020/12/21 01:06:27;;;;;;;6.53;1.50;;;22.30;92.70;;;;;;5050156;28;20396;-87
2020/12/21 01:08:58;;;;;;;5.35;1.27;;;22.20;93.30;;;;;;5050235;28;20855;-86
2020/12/21 01:11:28;;;;;;;5.40;1.43;;;22.20;93.20;;;;;;5050003;28;20472;-86
2020/12/21 01:13:56;;;;;;;4.43;1.30;;;22.20;92.80;;;;;;5049995;28;20383;-86
2020/12/21 01:16:24;;;;;;;5.82;1.65;;;22.20;92.80;;;;;;5048389;28;20395;-86
2020/12/21 01:18:52;;;;;;;5.88;1.45;;;22.10;92.40;;;;;;5049824;28;20419;-88
2020/12/21 01:21:27;;;;;;;6.68;1.48;;;22.10;92.60;;;;;;5053715;28;20453;-86
2020/12/21 01:23:56;;;;;;;8.40;1.70;;;22.20;93.00;;;;;;5049800;28;20411;-86
2020/12/21 01:26:24;;;;;;;8.13;1.48;;;22.20;92.80;;;;;;5060730;28;20413;-87
2020/12/21 01:28:52;;;;;;;7.93;1.60;;;22.30;93.10;;;;;;5068869;28;20416;-85
2020/12/21 01:31:20;;;;;;;7.00;1.70;;;22.20;93.20;;;;;;5051574;28;20376;-84
2020/12/21 01:33:49;;;;;;;9.13;1.40;;;22.30;93.50;;;;;;5049873;28;20372;-86
2020/12/21 01:36:21;;;;;;;8.70;1.60;;;22.20;92.90;;;;;;5052023;28;20723;-86
2020/12/21 01:38:48;;;;;;;8.07;1.50;;;22.30;93.50;;;;;;5061620;28;20506;-85
2020/12/21 01:41:16;;;;;;;7.18;1.80;;;22.30;93.70;;;;;;5051907;28;20822;-85
2020/12/21 01:43:43;;;;;;;7.43;1.70;;;22.30;93.50;;;;;;5061696;28;20382;-85
2020/12/21 01:46:13;;;;;;;7.60;1.48;;;22.30;92.50;;;;;;5068776;28;20439;-84
2020/12/21 01:48:43;;;;;;;7.97;1.73;;;22.10;91.90;;;;;;5062369;28;20466;-84
2020/12/21 01:51:39;;;;;;;8.60;1.60;;;22.10;92.90;;;;;;5062794;28;21048;-84
2020/12/21 01:54:07;;;;;;;7.28;1.58;;;22.10;92.30;;;;;;5040384;28;20388;-83
2020/12/21 01:56:36;;;;;;;6.63;1.50;;;22.00;93.30;;;;;;5052414;28;20911;-84
2020/12/21 01:59:03;;;;;;;5.30;1.30;;;22.00;92.90;;;;;;5063011;28;20423;-84
2020/12/21 02:01:33;;;;;;;5.80;1.42;;;21.90;93.20;;;;;;5051965;28;20870;-84
2020/12/21 02:04:00;;;;;;;7.50;1.63;;;21.90;93.90;;;;;;5058809;28;20391;-84
2020/12/21 02:06:27;;;;;;;7.50;1.52;;;21.90;94.60;;;;;;5055582;28;20396;-84
2020/12/21 02:08:55;;;;;;;8.05;1.58;;;21.80;94.90;;;;;;5068915;28;20895;-84
2020/12/21 02:11:25;;;;;;;5.07;1.30;;;21.80;94.30;;;;;;5054898;28;20430;-84
2020/12/21 02:13:52;;;;;;;7.23;1.73;;;21.70;95.20;;;;;;5048962;28;20797;-84
2020/12/21 02:16:19;;;;;;;6.38;1.55;;;21.60;94.80;;;;;;5048800;28;20380;-84
2020/12/21 02:18:47;;;;;;;9.38;2.10;;;21.50;95.10;;;;;;5056893;28;20377;-83
2020/12/21 02:21:14;;;;;;;6.82;1.90;;;21.50;95.80;;;;;;5053017;28;20388;-83
2020/12/21 02:23:41;;;;;;;6.13;1.33;;;21.50;95.70;;;;;;5047820;28;20432;-84
2020/12/21 02:26:09;;;;;;;8.25;1.40;;;21.50;96.30;;;;;;5048932;28;20838;-84
2020/12/21 02:28:36;;;;;;;8.25;1.80;;;21.50;96.80;;;;;;5048442;28;20379;-84
2020/12/21 02:31:03;;;;;;;7.40;1.35;;;21.50;95.80;;;;;;5048828;28;20474;-84
2020/12/21 02:33:31;;;;;;;8.98;1.50;;;21.40;95.80;;;;;;5048983;28;20376;-84
2020/12/21 02:35:58;;;;;;;7.60;1.38;;;21.20;95.80;;;;;;5049021;28;20375;-84
2020/12/21 02:38:25;;;;;;;6.47;2.00;;;21.10;96.30;;;;;;5066229;28;20412;-84
2020/12/21 02:40:52;;;;;;;9.45;1.75;;;21.00;97.30;;;;;;5062235;28;20398;-85
2020/12/21 02:43:20;;;;;;;6.38;1.40;;;21.00;97.70;;;;;;5048410;28;20391;-85
2020/12/21 02:45:48;;;;;;;6.65;1.40;;;20.90;97.10;;;;;;5057912;28;20415;-84
2020/12/21 02:48:15;;;;;;;7.68;1.50;;;20.80;97.60;;;;;;5068731;28;20473;-84
2020/12/21 02:50:43;;;;;;;5.33;1.47;;;20.80;97.60;;;;;;5068911;28;20476;-84
2020/12/21 02:53:12;;;;;;;6.57;1.45;;;20.80;98.20;;;;;;5066987;28;20377;-84
2020/12/21 02:55:39;;;;;;;8.55;1.63;;;20.70;97.90;;;;;;5068759;28;20374;-84
2020/12/21 02:58:06;;;;;;;5.88;1.25;;;20.60;98.30;;;;;;5064201;28;20386;-84
2020/12/21 03:00:34;;;;;;;5.63;1.20;;;20.70;98.60;;;;;;5053289;28;20418;-84
2020/12/21 03:03:02;;;;;;;5.15;1.20;;;20.60;98.50;;;;;;5048672;28;20755;-83
2020/12/21 03:05:30;;;;;;;6.10;1.52;;;20.70;98.30;;;;;;5048663;28;20408;-84
2020/12/21 03:07:59;;;;;;;6.50;1.67;;;20.70;98.70;;;;;;5048741;28;20372;-82
2020/12/21 03:10:27;;;;;;;7.90;1.70;;;20.70;98.10;;;;;;5051521;28;20407;-89
2020/12/21 03:12:54;;;;;;;5.88;1.58;;;20.70;98.60;;;;;;5027531;28;20859;-86
2020/12/21 03:15:21;;;;;;;10.30;1.40;;;20.70;98.60;;;;;;5044533;28;20382;-85
2020/12/21 03:17:49;;;;;;;8.10;1.70;;;20.60;99.10;;;;;;5029765;28;20376;-86
2020/12/21 03:20:16;;;;;;;7.72;1.67;;;20.60;99.30;;;;;;5048018;28;20738;-85
2020/12/21 03:22:47;;;;;;;9.00;1.80;;;20.60;99.60;;;;;;5048429;28;20370;-85
2020/12/21 03:25:14;;;;;;;6.38;1.42;;;20.60;99.00;;;;;;5021045;28;20503;-87
2020/12/21 03:27:43;;;;;;;5.97;1.67;;;20.50;98.90;;;;;;5048130;28;20372;-87
2020/12/21 03:30:10;;;;;;;6.72;1.58;;;20.50;99.10;;;;;;5043041;28;20439;-88
2020/12/21 03:32:38;;;;;;;6.80;1.60;;;20.50;99.50;;;;;;5028555;28;20503;-88
2020/12/21 03:35:06;;;;;;;5.45;1.42;;;20.50;99.50;;;;;;5040962;28;20894;-89
2020/12/21 03:37:35;;;;;;;7.20;1.33;;;20.40;99.20;;;;;;5031730;28;20452;-88
2020/12/21 03:40:07;;;;;;;4.00;1.33;;;20.40;99.40;;;;;;5035465;28;20750;-90
2020/12/21 03:42:35;;;;;;;6.53;1.40;;;20.40;99.90;;;;;;5052086;28;20485;-88
2020/12/21 03:45:04;;;;;;;8.82;1.50;;;20.30;99.90;;;;;;5046382;28;20883;-90
2020/12/21 03:47:31;;;;;;;7.30;1.50;;;20.40;99.90;;;;;;5035611;28;20421;-88
2020/12/21 03:49:58;;;;;;;6.65;1.70;;;20.40;99.90;;;;;;5049018;28;20372;-91
2020/12/21 03:52:26;;;;;;;5.95;1.92;;;20.40;99.90;;;;;;5033910;28;20420;-90
2020/12/21 03:54:53;;;;;;;9.80;1.40;;;20.30;99.90;;;;;;5041861;28;20379;-89
2020/12/21 03:57:20;;;;;;;5.30;1.30;;;20.30;99.90;;;;;;5036690;28;20398;-89
2020/12/21 03:59:47;;;;;;;6.43;1.60;;;20.30;99.90;;;;;;5031865;28;20382;-89
2020/12/21 04:02:15;;;;;;;3.80;1.50;;;20.20;99.90;;;;;;5047958;28;20376;-86
2020/12/21 04:04:42;;;;;;;8.02;1.35;;;20.20;99.90;;;;;;5032325;28;20481;-89
2020/12/21 04:07:09;;;;;;;6.28;1.50;;;20.20;99.90;;;;;;5034928;28;20411;-92
2020/12/21 04:09:37;;;;;;;4.90;1.48;;;20.10;99.90;;;;;;5062445;28;20714;-87
2020/12/21 04:12:04;;;;;;;6.80;1.53;;;20.10;99.90;;;;;;5071911;28;20374;-89
2020/12/21 04:14:31;;;;;;;5.57;1.73;;;20.10;99.90;;;;;;5071285;28;20366;-89
2020/12/21 04:16:59;;;;;;;5.80;1.48;;;20.10;99.90;;;;;;5071662;28;20408;-88
2020/12/21 04:19:27;;;;;;;7.10;1.50;;;20.10;99.90;;;;;;5071508;28;20565;-88
2020/12/21 04:21:54;;;;;;;3.92;1.70;;;20.10;99.90;;;;;;5071236;28;20374;-89
2020/12/21 04:24:22;;;;;;;6.97;1.80;;;20.00;99.90;;;;;;5071107;28;20967;-93
2020/12/21 04:26:49;;;;;;;4.80;1.75;;;20.00;99.90;;;;;;5071193;28;20403;-92
2020/12/21 04:29:16;;;;;;;6.13;1.67;;;20.10;99.90;;;;;;5071381;28;20465;-93
2020/12/21 04:31:44;;;;;;;4.53;1.40;;;20.00;99.90;;;;;;5070862;28;20382;-93
2020/12/21 04:34:11;;;;;;;4.22;1.30;;;20.00;99.50;;;;;;5071166;28;20441;-89
2020/12/21 04:36:38;;;;;;;3.90;1.27;;;19.90;99.40;;;;;;5071127;28;20409;-90
2020/12/21 04:39:05;;;;;;;5.30;1.40;;;19.80;99.50;;;;;;5070378;28;20413;-89
2020/12/21 04:41:33;;;;;;;3.72;1.38;;;19.80;99.60;;;;;;5070738;28;20477;-88
2020/12/21 04:44:00;;;;;;;3.90;1.20;;;19.70;99.40;;;;;;5070968;28;20374;-87
2020/12/21 04:46:28;;;;;;;5.00;1.25;;;19.70;99.50;;;;;;5070989;28;20375;-92
2020/12/21 04:49:02;;;;;;;4.28;1.42;;;19.60;99.30;;;;;;5071431;28;20382;-92
2020/12/21 04:51:35;;;;;;;6.78;1.50;;;19.50;98.80;;;;;;5069427;28;20405;-90
2020/12/21 04:54:03;;;;;;;6.30;1.83;;;19.40;99.50;;;;;;5070921;28;20437;-90
2020/12/21 04:56:30;;;;;;;12.60;1.80;;;19.40;99.70;;;;;;5071225;28;20887;-95
2020/12/21 04:58:57;;;;;;;4.60;1.60;;;19.40;99.50;;;;;;5071450;28;20781;-96
2020/12/21 05:01:25;;;;;;;5.32;1.73;;;19.30;99.70;;;;;;5071095;28;20738;-90
2020/12/21 05:03:53;;;;;;;5.43;1.92;;;19.10;99.70;;;;;;5070784;28;20366;-91
2020/12/21 05:06:20;;;;;;;8.10;1.90;;;18.90;99.90;;;;;;5070756;28;20390;-93
2020/12/21 05:08:47;;;;;;;5.72;1.52;;;18.80;99.90;;;;;;5071128;28;20381;-92
2020/12/21 05:11:15;;;;;;;6.40;1.90;;;18.80;99.90;;;;;;5070931;28;20382;-94
2020/12/21 05:13:42;;;;;;;5.60;1.80;;;18.80;99.90;;;;;;5070311;28;20404;-90
2020/12/21 05:16:10;;;;;;;3.67;1.50;;;18.80;99.90;;;;;;5070810;28;20377;-93
2020/12/21 05:18:37;;;;;;;4.22;1.70;;;18.70;99.90;;;;;;5070505;28;20389;-91
2020/12/21 05:21:10;;;;;;;5.25;1.80;;;18.60;99.70;;;;;;5070714;28;20378;-90
2020/12/21 05:23:38;;;;;;;2.22;1.50;;;18.50;99.50;;;;;;5070756;28;20414;-91
2020/12/21 05:26:08;;;;;;;3.47;1.60;;;18.40;99.80;;;;;;5070639;28;20406;-94
2020/12/21 05:28:39;;;;;;;2.33;1.43;;;18.40;99.90;;;;;;5070345;28;20412;-93
2020/12/21 05:31:09;;;;;;;2.90;1.35;;;18.40;99.90;;;;;;5070554;28;20377;-94
2020/12/21 05:33:44;;;;;;;3.13;1.60;;;18.30;99.90;;;;;;5070426;28;20418;-93
2020/12/21 05:36:14;;;;;;;4.68;1.83;;;18.30;99.90;;;;;;5067557;28;20463;-96
2020/12/21 05:38:54;;;;;;;4.87;1.33;;;18.30;99.90;;;;;;5051363;28;20404;-89
2020/12/21 05:41:21;;;;;;;2.78;0.93;;;18.20;99.90;;;;;;5051223;28;20384;-91
2020/12/21 05:43:51;;;;;;;10.15;1.23;;;18.30;99.90;;;;;;5050163;28;20724;-94
2020/12/21 05:46:23;;;;;;;4.22;1.30;;;18.30;99.90;;;;;;5052784;28;20403;-91
2020/12/21 05:48:56;;;;;;;1.95;0.65;;;18.30;99.90;;;;;;5050570;28;20392;-93
2020/12/21 05:51:25;;;;;;;1.70;0.90;;;18.20;99.90;;;;;;5050371;28;20394;-90
2020/12/21 05:53:55;;;;;;;2.78;0.90;;;18.10;99.90;;;;;;5050727;28;20386;-92
2020/12/21 05:56:24;;;;;;;2.17;0.95;;;18.10;99.90;;;;;;5049514;28;20384;-90
2020/12/21 05:58:51;;;;;;;3.38;1.00;;;18.10;99.90;;;;;;5046153;28;20500;-90
2020/12/21 06:01:19;;;;;;;2.08;0.80;;;18.20;99.90;;;;;;5050474;28;20407;-95
2020/12/21 06:04:04;;;;;;;1.45;0.90;;;18.20;99.90;;;;;;5036457;28;20374;-93
2020/12/21 06:06:33;;;;;;;3.15;0.85;;;18.10;99.90;;;;;;5047355;28;20398;-88
2020/12/21 06:09:14;;;;;;;3.35;0.93;;;18.20;99.90;;;;;;5049310;28;20396;-92
2020/12/21 06:11:42;;;;;;;2.55;0.77;;;18.20;99.90;;;;;;5053253;28;20450;-88
2020/12/21 06:14:17;;;;;;;5.93;0.98;;;18.20;99.90;;;;;;5051182;28;20501;-89
2020/12/21 06:16:45;;;;;;;5.38;0.90;;;18.20;99.90;;;;;;5048853;28;20388;-86
2020/12/21 06:19:14;;;;;;;2.42;0.90;;;18.20;99.90;;;;;;5050778;28;20402;-88
2020/12/21 06:21:59;;;;;;;1.95;0.85;;;18.20;99.90;;;;;;5052195;28;20392;-91
2020/12/21 06:24:27;;;;;;;2.40;1.10;;;18.30;99.90;;;;;;5054892;28;20403;-89
2020/12/21 06:26:55;;;;;;;2.70;0.75;;;18.30;99.90;;;;;;5048170;28;20887;-89
2020/12/21 06:29:24;;;;;;;3.15;1.05;;;18.30;99.90;;;;;;5051296;28;20417;-91
2020/12/21 06:31:54;;;;;;;3.35;0.70;;;18.30;99.90;;;;;;5048530;28;20399;-91
2020/12/21 06:34:34;;;;;;;2.90;0.80;;;18.30;99.90;;;;;;5048341;28;20415;-89
2020/12/21 06:37:15;;;;;;;2.47;0.85;;;18.20;99.90;;;;;;5048727;28;20989;-91
2020/12/21 06:39:44;;;;;;;3.80;0.73;;;18.20;99.90;;;;;;5029664;28;20815;-89
2020/12/21 06:42:13;;;;;;;2.20;0.70;;;18.30;99.90;;;;;;5047814;28;20398;-89
2020/12/21 06:44:42;;;;;;;1.73;0.82;;;18.20;99.90;;;;;;5050871;28;20522;-91
2020/12/21 06:47:11;;;;;;;2.72;0.80;;;18.30;99.90;;;;;;5056799;28;20384;-93
2020/12/21 06:49:39;;;;;;;2.90;0.93;;;18.30;99.90;;;;;;5048774;28;20470;-91
2020/12/21 06:52:06;;;;;;;3.80;0.77;;;18.30;99.90;;;;;;5048864;28;20420;-91
2020/12/21 06:54:34;;;;;;;3.22;0.88;;;18.30;99.90;;;;;;5041906;28;20389;-87
2020/12/21 06:57:02;;;;;;;2.95;1.00;;;18.30;99.90;;;;;;5050290;28;20425;-92
2020/12/21 06:59:29;;;;;;;6.70;0.90;;;18.30;99.90;;;;;;5058420;28;20467;-90
2020/12/21 07:01:57;;;;;;;2.45;0.90;;;18.40;99.90;;;;;;5057807;28;20887;-92
2020/12/21 07:04:29;;;;;;;4.97;1.10;;;18.40;99.90;;;;;;5049876;28;20403;-91
2020/12/21 07:07:00;;;;;;;2.67;0.82;;;18.30;99.90;;;;;;5057642;28;20842;-89
2020/12/21 07:09:32;;;;;;;6.95;1.23;;;18.30;99.90;;;;;;5055797;28;20876;-91
2020/12/21 07:12:02;;;;;;;5.65;1.20;;;18.40;99.90;;;;;;5068041;28;20792;-90
2020/12/21 07:14:31;;;;;;;2.80;0.90;;;18.40;99.90;;;;;;5053035;28;20786;-91
2020/12/21 07:17:06;;;;;;;5.15;1.38;;;18.40;99.90;;;;;;5051352;28;20474;-93
2020/12/21 07:19:47;;;;;;;4.57;1.20;;;18.40;99.90;;;;;;5052779;28;20885;-91
2020/12/21 07:22:15;;;;;;;3.28;1.10;;;18.40;99.90;;;;;;5034339;28;20434;-89
2020/12/21 07:24:46;;;;;;;5.32;1.20;;;18.40;99.90;;;;;;5020162;28;20488;-90
2020/12/21 07:27:13;;;;;;;1.90;0.90;;;18.40;99.90;;;;;;5053943;28;20395;-91
2020/12/21 07:29:41;;;;;;;2.60;0.90;;;18.40;99.90;;;;;;5053784;28;20399;-92
2020/12/21 07:32:11;;;;;;;2.72;1.23;;;18.30;99.90;;;;;;5036663;28;20410;-92
2020/12/21 07:34:39;;;;;;;4.57;1.25;;;18.30;99.90;;;;;;5045735;28;20457;-92
2020/12/21 07:37:11;;;;;;;3.72;1.27;;;18.30;99.90;;;;;;5046613;28;20464;-91
2020/12/21 07:39:41;;;;;;;3.80;1.33;;;18.30;99.90;;;;;;5020450;28;20408;-94
2020/12/21 07:42:13;;;;;;;1.90;1.20;;;18.30;99.90;;;;;;5036056;28;20393;-93
2020/12/21 07:44:50;;;;;;;2.60;1.48;;;18.30;99.90;;;;;;5015158;28;20406;-94
2020/12/21 07:47:27;;;;;;;4.75;1.90;;;18.20;99.90;;;;;;5043057;28;20397;-96
2020/12/21 07:49:55;;;;;;;4.57;1.60;;;18.20;99.90;;;;;;5027412;28;20395;-93
2020/12/21 07:52:23;;;;;;;3.88;1.38;;;18.20;99.90;;;;;;5044055;28;20384;-90
2020/12/21 07:54:54;;;;;;;5.32;1.40;;;18.10;99.90;;;;;;5052359;28;20851;-94
2020/12/21 07:57:24;;;;;;;7.43;1.35;;;18.00;99.90;;;;;;5052416;28;20368;-94
2020/12/21 08:00:04;;;;;;;3.90;1.17;;;18.00;99.90;;;;;;5050321;28;20441;-86
2020/12/21 08:02:33;;;;;;;5.25;1.50;;;17.90;99.90;;;;;;5039175;28;20389;-89
2020/12/21 08:05:00;;;;;;;3.67;1.25;;;17.80;99.90;;;;;;5037297;28;20479;-86
2020/12/21 08:07:28;;;;;;;2.42;1.20;;;17.70;99.90;;;;;;5031693;28;20408;-90
2020/12/21 08:09:57;;;;;;;2.75;1.13;;;17.60;99.90;;;;;;5031648;28;21030;-90
2020/12/21 08:12:34;;;;;;;2.75;1.23;;;17.50;99.90;;;;;;5053411;28;20424;-92
2020/12/21 08:15:03;;;;;;;3.80;1.50;;;17.50;99.90;;;;;;5046550;28;20396;-88
2020/12/21 08:17:32;;;;;;;5.55;1.38;;;17.40;99.90;;;;;;5045861;28;21012;-87
2020/12/21 08:20:05;;;;;;;3.80;1.50;;;17.40;99.90;;;;;;5049566;28;20408;-83
2020/12/21 08:22:32;;;;;;;2.58;1.42;;;17.40;99.90;;;;;;5041810;28;20397;-89
2020/12/21 08:25:11;;;;;;;2.03;1.35;;;17.30;99.90;;;;;;5052350;28;20534;-91
2020/12/21 08:27:52;;;;;;;3.65;1.80;;;17.30;99.90;;;;;;5046748;28;20839;-90
2020/12/21 08:30:22;;;;;;;4.93;1.70;;;17.20;99.90;;;;;;5023634;28;20812;-85
2020/12/21 08:32:52;;;;;;;2.90;1.80;;;17.30;99.90;;;;;;5031398;28;20372;-87
2020/12/21 08:35:27;;;;;;;5.28;1.55;;;17.30;99.90;;;;;;5064195;28;20448;-90
2020/12/21 08:38:04;;;;;;;7.60;1.70;;;17.20;99.90;;;;;;5063514;28;20376;-91
2020/12/21 08:40:32;;;;;;;3.55;1.65;;;17.20;99.90;;;;;;5044439;28;20925;-93
2020/12/21 08:43:00;;;;;;;2.97;1.83;;;17.20;99.90;;;;;;5055759;28;20379;-90
2020/12/21 08:45:27;;;;;;;6.93;1.80;;;17.20;99.90;;;;;;5050278;28;20435;-89
2020/12/21 08:47:54;;;;;;;3.55;1.65;;;17.20;99.90;;;;;;5049221;28;20394;-91
2020/12/21 08:50:22;;;;;;;2.22;1.92;;;17.20;99.90;;;;;;5054917;28;20437;-89
2020/12/21 08:52:49;;;;;;;3.97;1.80;;;17.20;99.90;;;;;;5047238;28;20391;-87
2020/12/21 08:55:17;;;;;;;3.55;1.92;;;17.20;99.90;;;;;;5051705;28;20403;-89
2020/12/21 08:57:44;;;;;;;3.60;2.03;;;17.20;99.90;;;;;;5030231;28;20463;-91
2020/12/21 09:00:11;;;;;;;3.90;2.20;;;17.20;99.90;;;;;;5040406;28;20484;-89
2020/12/21 09:02:38;;;;;;;3.25;1.95;;;17.20;99.90;;;;;;5033432;28;20480;-88
2020/12/21 09:05:06;;;;;;;7.65;2.35;;;17.20;99.90;;;;;;5046037;28;20419;-87
2020/12/21 09:07:34;;;;;;;4.80;2.22;;;17.20;99.90;;;;;;5045007;28;20409;-88
2020/12/21 09:10:01;;;;;;;5.07;2.20;;;17.20;99.90;;;;;;5047426;28;20384;-87
2020/12/21 09:12:29;;;;;;;4.30;2.05;;;17.20;99.90;;;;;;5049105;28;20387;-88
2020/12/21 09:14:56;;;;;;;7.25;2.17;;;17.20;99.90;;;;;;5040547;28;20398;-87
2020/12/21 09:17:23;;;;;;;2.95;2.30;;;17.30;99.90;;;;;;5038889;28;20384;-87
2020/12/21 09:19:51;;;;;;;7.90;2.33;;;17.30;99.90;;;;;;5034965;28;20545;-90
2020/12/21 09:22:18;;;;;;;2.67;2.00;;;17.30;99.90;;;;;;5050482;28;20936;-89
2020/12/21 09:24:48;;;;;;;7.13;2.30;;;17.30;99.90;;;;;;5044696;28;20454;-88
2020/12/21 09:27:16;;;;;;;5.30;2.13;;;17.40;99.90;;;;;;5044927;28;20400;-88
2020/12/21 09:29:43;;;;;;;4.00;2.22;;;17.40;99.90;;;;;;5037839;28;20835;-87
2020/12/21 09:32:11;;;;;;;10.52;2.40;;;17.40;99.90;;;;;;5046870;28;20391;-89
2020/12/21 09:34:38;;;;;;;3.77;2.63;;;17.30;99.90;;;;;;5050535;28;20382;-90
2020/12/21 09:37:05;;;;;;;6.57;2.42;;;17.30;99.90;;;;;;5047652;28;20446;-90
2020/12/21 09:39:32;;;;;;;6.50;2.45;;;17.30;99.90;;;;;;5064756;28;21256;-89
2020/12/21 09:42:00;;;;;;;5.37;2.80;;;17.30;99.90;;;;;;5058530;28;20452;-89
2020/12/21 09:44:27;;;;;;;3.88;2.63;;;17.30;99.90;;;;;;5045266;28;20419;-90
2020/12/21 09:46:54;;;;;;;3.40;2.30;;;17.30;99.90;;;;;;5025855;28;20494;-89
2020/12/21 09:49:22;;;;;;;6.10;2.30;;;17.40;99.90;;;;;;5045748;28;20403;-90
2020/12/21 09:51:53;;;;;;;7.03;2.40;;;17.40;99.90;;;;;;5046236;28;20395;-90
2020/12/21 09:54:21;;;;;;;4.15;2.50;;;17.40;99.90;;;;;;5036903;28;20380;-91
2020/12/21 09:56:49;;;;;;;3.60;2.70;;;17.40;99.90;;;;;;5034226;28;20422;-91
2020/12/21 09:59:17;;;;;;;5.53;2.42;;;17.30;99.90;;;;;;5047325;28;20418;-90
2020/12/21 10:01:44;;;;;;;2.38;2.17;;;17.30;99.90;;;;;;5046552;28;20376;-89
2020/12/21 10:04:11;;;;;;;8.15;2.33;;;17.30;99.90;;;;;;5027827;28;20936;-89
2020/12/21 10:06:38;;;;;;;4.30;2.30;;;17.30;99.90;;;;;;5046565;28;20388;-89
2020/12/21 10:09:06;;;;;;;4.82;2.50;;;17.30;99.90;;;;;;5046084;28;21167;-89
2020/12/21 10:11:33;;;;;;;5.30;2.60;;;17.30;99.90;;;;;;5036431;28;20383;-89
2020/12/21 10:14:01;;;;;;;6.85;2.42;;;17.30;99.90;;;;;;5028098;28;20815;-89
2020/12/21 10:16:28;;;;;;;3.90;2.33;;;17.30;99.90;;;;;;5047119;28;20380;-91
2020/12/21 10:18:55;;;;;;;6.43;2.30;;;17.30;99.90;;;;;;5046364;28;20402;-91
2020/12/21 10:21:23;;;;;;;3.97;2.20;;;17.30;99.90;;;;;;5058263;28;20397;-92
2020/12/21 10:23:50;;;;;;;6.70;2.00;;;17.30;99.90;;;;;;5062254;28;20426;-91
2020/12/21 10:26:17;;;;;;;3.85;2.50;;;17.30;99.90;;;;;;5048651;28;20437;-89
2020/12/21 10:28:44;;;;;;;4.97;2.47;;;17.30;99.90;;;;;;5026343;28;20481;-88
2020/12/21 10:31:12;;;;;;;9.50;2.38;;;17.20;99.90;;;;;;5060858;28;20455;-89
2020/12/21 10:33:39;;;;;;;4.40;2.40;;;17.30;99.90;;;;;;5032823;28;20464;-89
2020/12/21 10:36:06;;;;;;;2.67;2.05;;;17.30;99.90;;;;;;5045175;28;20447;-91
2020/12/21 10:38:33;;;;;;;4.10;2.33;;;17.30;99.90;;;;;;5042722;28;20418;-90
2020/12/21 10:41:01;;;;;;;3.00;2.70;;;17.30;99.90;;;;;;5051229;28;20402;-91
2020/12/21 10:43:28;;;;;;;6.10;2.53;;;17.30;99.90;;;;;;5050595;28;20836;-90
2020/12/21 10:45:55;;;;;;;3.50;2.35;;;17.30;99.90;;;;;;5045836;28;20423;-90
2020/12/21 10:48:22;;;;;;;5.10;2.50;;;17.30;99.90;;;;;;5055036;28;20431;-92
2020/12/21 10:50:51;;;;;;;5.53;2.60;;;17.30;99.90;;;;;;5067889;28;20422;-90
2020/12/21 10:53:18;;;;;;;4.20;2.60;;;17.30;99.90;;;;;;5061697;28;20383;-91
2020/12/21 10:55:45;;;;;;;4.60;2.38;;;17.20;99.90;;;;;;5039687;28;20384;-91
2020/12/21 10:58:13;;;;;;;3.88;2.60;;;17.20;99.90;;;;;;5073483;28;20393;-86
2020/12/21 11:00:40;;;;;;;3.30;2.67;;;17.20;99.90;;;;;;5072747;28;20764;-87
2020/12/21 11:03:07;;;;;;;5.32;2.60;;;17.20;99.90;;;;;;5062106;28;20873;-87
2020/12/21 11:05:35;;;;;;;4.47;2.60;;;17.20;99.90;;;;;;5051808;28;20797;-87
2020/12/21 11:08:02;;;;;;;17.90;3.13;;;17.20;99.90;;;;;;5045718;28;20417;-86
2020/12/21 11:10:30;;;;;;;3.13;2.33;;;17.30;99.90;;;;;;5064418;28;20395;-86
2020/12/21 11:12:58;;;;;;;2.60;2.40;;;17.30;99.90;;;;;;5052805;28;20391;-87
2020/12/21 11:15:25;;;;;;;6.37;2.77;;;17.30;99.90;;;;;;5052345;28;20426;-87
2020/12/21 11:17:53;;;;;;;5.85;2.80;;;17.40;99.90;;;;;;5059204;28;20455;-86
2020/12/21 11:20:20;;;;;;;5.22;2.83;;;17.40;99.90;;;;;;5053313;28;20403;-87
2020/12/21 11:22:48;;;;;;;6.70;2.72;;;17.40;99.90;;;;;;5052231;28;20422;-87
2020/12/21 11:25:15;;;;;;;9.77;2.58;;;17.40;99.90;;;;;;5051008;28;20455;-86
2020/12/21 11:27:42;;;;;;;7.20;2.90;;;17.50;99.90;;;;;;5051800;28;20391;-86
2020/12/21 11:30:10;;;;;;;4.07;2.70;;;17.50;99.90;;;;;;5045793;28;20399;-89
2020/12/21 11:32:37;;;;;;;3.55;2.42;;;17.40;99.90;;;;;;5045911;28;20429;-86
2020/12/21 11:35:05;;;;;;;12.88;2.92;;;17.40;99.90;;;;;;5032122;28;20411;-86
2020/12/21 11:37:32;;;;;;;6.57;3.10;;;17.40;99.90;;;;;;5032897;28;20401;-87
2020/12/21 11:39:59;;;;;;;2.85;2.45;;;17.50;99.90;;;;;;5058535;28;20443;-87
2020/12/21 11:42:27;;;;;;;3.67;2.97;;;17.40;99.90;;;;;;5047654;28;20419;-87
2020/12/21 11:44:54;;;;;;;6.28;2.72;;;17.50;99.90;;;;;;5037893;28;20435;-87
2020/12/21 11:47:21;;;;;;;6.10;2.70;;;17.40;99.90;;;;;;5042132;28;20979;-88
2020/12/21 11:49:49;;;;;;;5.70;3.17;;;17.40;99.90;;;;;;5036901;28;20397;-87
2020/12/21 11:52:16;;;;;;;4.75;2.85;;;17.40;99.90;;;;;;5032557;28;20443;-87
2020/12/21 11:54:43;;;;;;;5.97;2.93;;;17.40;99.90;;;;;;5052246;28;20396;-88
2020/12/21 11:57:10;;;;;;;3.63;2.67;;;17.40;99.90;;;;;;5043092;28;20389;-88
2020/12/21 11:59:38;;;;;;;3.50;2.75;;;17.30;99.90;;;;;;5038862;28;20393;-89
2020/12/21 12:02:05;;;;;;;4.47;2.80;;;17.30;99.90;;;;;;5055481;28;20419;-88
2020/12/21 12:04:33;;;;;;;4.28;2.90;;;17.30;99.90;;;;;;5029431;28;20486;-87
2020/12/21 12:07:04;;;;;;;4.50;3.17;;;17.30;99.90;;;;;;5047306;28;20414;-86
2020/12/21 12:09:32;;;;;;;3.28;2.63;;;17.30;99.90;;;;;;5048500;28;21020;-88
2020/12/21 12:11:59;;;;;;;4.13;2.75;;;17.30;99.90;;;;;;5051155;28;20529;-87
2020/12/21 12:14:27;;;;;;;4.63;2.72;;;17.30;99.90;;;;;;5039972;28;20400;-88
2020/12/21 12:16:58;;;;;;;4.72;2.67;;;17.30;99.90;;;;;;5048864;28;20431;-88
2020/12/21 12:19:30;;;;;;;3.40;2.33;;;17.30;99.90;;;;;;5049463;28;20732;-89
2020/12/21 12:21:57;;;;;;;3.70;2.53;;;17.30;99.90;;;;;;5050372;28;20398;-88
2020/12/21 12:24:25;;;;;;;7.80;2.30;;;17.30;99.90;;;;;;5058573;28;20426;-87
2020/12/21 12:26:53;;;;;;;3.50;2.45;;;17.30;99.90;;;;;;5048079;28;20511;-87
2020/12/21 12:29:21;;;;;;;5.23;2.83;;;17.30;99.90;;;;;;5046880;28;20564;-88
2020/12/21 12:31:49;;;;;;;3.10;2.70;;;17.30;99.90;;;;;;5047204;28;20410;-87
2020/12/21 12:34:16;;;;;;;6.82;2.78;;;17.20;99.90;;;;;;5041243;28;20404;-86
2020/12/21 12:36:44;;;;;;;4.80;2.80;;;17.30;99.90;;;;;;5054068;28;20769;-86
2020/12/21 12:39:11;;;;;;;4.57;2.90;;;17.20;99.90;;;;;;5032592;28;20815;-87
2020/12/21 12:41:40;;;;;;;4.25;2.45;;;17.20;99.90;;;;;;5048186;28;21018;-86
2020/12/21 12:44:09;;;;;;;3.33;2.30;;;17.30;99.90;;;;;;5031502;28;20919;-86
2020/12/21 12:46:37;;;;;;;3.35;2.38;;;17.30;99.90;;;;;;5049577;28;20410;-86
2020/12/21 12:49:06;;;;;;;4.45;2.15;;;17.20;99.90;;;;;;5057183;28;20395;-87
2020/12/21 12:51:36;;;;;;;2.83;2.40;;;17.30;99.90;;;;;;5050862;28;20388;-88
2020/12/21 12:54:04;;;;;;;2.57;2.37;;;17.30;99.90;;;;;;5040637;28;20905;-86